createdAt,value
2022-08-11T00:02:40.086Z,100354.00
2022-08-11T00:05:10.580Z,100352.28
2022-08-11T00:07:44.667Z,100362.66
2022-08-11T00:10:14.397Z,100354.00
2022-08-11T00:12:45.208Z,100360.97
2022-08-11T00:15:14.343Z,100361.00
2022-08-11T00:17:43.651Z,100357.53
2022-08-11T00:20:16.619Z,100354.97
2022-08-11T00:22:46.640Z,100361.06
2022-08-11T00:25:16.828Z,100361.03
2022-08-11T00:27:45.591Z,100355.81
2022-08-11T00:30:16.099Z,100361.88
2022-08-11T00:32:46.004Z,100357.53
2022-08-11T00:35:50.786Z,100361.94
2022-08-11T00:38:07.319Z,100370.63
2022-08-11T00:40:39.016Z,100368.88
2022-08-11T00:43:20.456Z,100368.84
2022-08-11T00:46:11.349Z,100374.97
2022-08-11T00:48:49.772Z,100373.22
2022-08-11T00:51:26.404Z,100366.28
2022-08-11T00:55:09.632Z,100374.13
2022-08-11T00:58:03.736Z,100369.75
2022-08-11T01:00:34.261Z,100369.75
2022-08-11T01:03:19.941Z,100372.41
2022-08-11T01:06:15.882Z,100364.56
2022-08-11T01:09:22.799Z,100368.94
2022-08-11T01:12:19.853Z,100368.13
2022-08-11T01:15:25.733Z,100364.63
2022-08-11T01:18:29.487Z,100369.81
2022-08-11T01:21:34.689Z,100372.44
2022-08-11T01:24:36.279Z,100372.41
2022-08-11T01:27:37.328Z,100378.47
2022-08-11T01:30:46.004Z,100382.84
2022-08-11T01:34:02.479Z,100375.03
2022-08-11T01:37:03.205Z,100375.03
2022-08-11T01:39:58.455Z,100371.53
2022-08-11T01:43:14.540Z,100373.25
2022-08-11T01:45:48.377Z,100377.53
2022-08-11T01:48:27.331Z,100371.38
2022-08-11T01:51:04.315Z,100380.00
2022-08-11T01:53:44.804Z,100374.81
2022-08-11T01:56:32.451Z,100379.13
2022-08-11T01:59:10.916Z,100371.34
2022-08-11T02:01:51.215Z,100373.00
2022-08-11T02:04:30.783Z,100369.47
2022-08-11T02:07:08.821Z,100373.84
2022-08-11T02:09:53.096Z,100371.28
2022-08-11T02:12:32.069Z,100367.91
2022-08-11T02:15:12.617Z,100366.22
2022-08-11T02:17:51.595Z,100375.78
2022-08-11T02:20:44.799Z,100362.75
2022-08-11T02:24:06.766Z,100376.59
2022-08-11T02:26:41.056Z,100374.03
2022-08-11T02:29:19.759Z,100374.91
2022-08-11T02:32:28.652Z,100367.13
2022-08-11T02:35:06.216Z,100373.13
2022-08-11T02:37:46.505Z,100367.00
2022-08-11T02:40:23.168Z,100364.34
2022-08-11T02:43:05.421Z,100364.38
2022-08-11T02:45:47.259Z,100367.91
2022-08-11T02:48:48.371Z,100369.66
2022-08-11T02:51:26.572Z,100369.66
2022-08-11T02:54:03.018Z,100366.19
2022-08-11T02:56:44.418Z,100368.78
2022-08-11T02:59:43.445Z,100366.22
2022-08-11T03:02:21.321Z,100365.38
2022-08-11T03:05:02.210Z,100374.88
2022-08-11T03:07:37.161Z,100366.16
2022-08-11T03:10:11.505Z,100373.13
2022-08-11T03:13:05.494Z,100368.75
2022-08-11T03:15:59.906Z,100373.03
2022-08-11T03:18:33.842Z,100369.53
2022-08-11T03:21:08.782Z,100368.69
2022-08-11T03:23:42.575Z,100386.84
2022-08-11T03:26:23.793Z,100378.94
2022-08-11T03:29:01.109Z,100386.75
2022-08-11T03:31:35.723Z,100380.78
2022-08-11T03:34:08.382Z,100380.66
2022-08-11T03:37:16.059Z,100385.88
2022-08-11T03:39:56.785Z,100382.16
2022-08-11T03:42:33.216Z,100384.72
2022-08-11T03:45:11.953Z,100378.53
2022-08-11T03:48:09.141Z,100386.38
2022-08-11T03:50:55.977Z,100383.69
2022-08-11T03:53:45.185Z,100388.84
2022-08-11T03:56:52.024Z,100387.97
2022-08-11T04:00:02.040Z,100384.59
2022-08-11T04:03:12.449Z,100386.38
2022-08-11T04:06:19.412Z,100386.28
2022-08-11T04:09:23.340Z,100396.75
2022-08-11T04:12:36.014Z,100398.44
2022-08-11T04:16:11.383Z,100387.06
2022-08-11T04:18:57.125Z,100393.13
2022-08-11T04:21:51.485Z,100392.13
2022-08-11T04:24:40.997Z,100388.53
2022-08-11T04:27:37.474Z,100389.38
2022-08-11T04:30:13.163Z,100390.28
2022-08-11T04:33:03.201Z,100389.44
2022-08-11T04:35:50.712Z,100392.78
2022-08-11T04:38:50.048Z,100390.94
2022-08-11T04:42:15.172Z,100387.47
2022-08-11T04:45:10.871Z,100396.06
2022-08-11T04:48:28.775Z,100392.84
2022-08-11T04:51:34.450Z,100400.78
2022-08-11T04:54:28.762Z,100390.34
2022-08-11T04:57:21.262Z,100393.84
2022-08-11T05:00:23.146Z,100400.78
2022-08-11T05:03:35.324Z,100390.38
2022-08-11T05:06:30.338Z,100398.06
2022-08-11T05:09:23.489Z,100400.72
2022-08-11T05:12:14.071Z,100403.47
2022-08-11T05:15:08.072Z,100408.66
2022-08-11T05:18:01.165Z,100398.31
2022-08-11T05:20:49.365Z,100401.72
2022-08-11T05:23:40.211Z,100401.63
2022-08-11T05:26:46.017Z,100400.00
2022-08-11T05:29:55.080Z,100398.31
2022-08-11T05:32:42.363Z,100406.16
2022-08-11T05:36:00.919Z,100411.41
2022-08-11T05:38:18.024Z,100408.16
2022-08-11T05:41:12.719Z,100409.19
2022-08-11T05:44:21.113Z,100409.28
2022-08-11T05:47:08.094Z,100409.41
2022-08-11T05:49:53.660Z,100411.22
2022-08-11T05:52:42.124Z,100418.25
2022-08-11T05:55:29.766Z,100407.88
2022-08-11T05:58:03.137Z,100411.38
2022-08-11T06:00:31.008Z,100406.28
2022-08-11T06:03:01.146Z,100407.16
2022-08-11T06:05:37.181Z,100415.84
2022-08-11T06:08:13.229Z,100414.13
2022-08-11T06:10:42.321Z,100403.72
2022-08-11T06:13:15.657Z,100403.72
2022-08-11T06:15:48.187Z,100402.84
2022-08-11T06:18:16.485Z,100406.31
2022-08-11T06:20:48.840Z,100399.38
2022-08-11T06:23:19.388Z,100403.72
2022-08-11T06:25:48.005Z,100410.66
2022-08-11T06:28:20.767Z,100406.31
2022-08-11T06:30:49.784Z,100405.38
2022-08-11T06:33:22.441Z,100415.81
2022-08-11T06:36:00.885Z,100403.63
2022-08-11T06:38:57.986Z,100406.16
2022-08-11T06:41:31.581Z,100403.53
2022-08-11T06:44:16.249Z,100406.09
2022-08-11T06:46:47.530Z,100406.94
2022-08-11T06:49:34.989Z,100406.88
2022-08-11T06:52:05.128Z,100405.97
2022-08-11T06:54:41.234Z,100401.53
2022-08-11T06:57:31.388Z,100402.38
2022-08-11T07:00:28.831Z,100403.13
2022-08-11T07:03:01.768Z,100403.03
2022-08-11T07:05:39.074Z,100403.78
2022-08-11T07:08:52.702Z,100407.22
2022-08-11T07:12:01.223Z,100398.31
2022-08-11T07:14:49.278Z,100408.63
2022-08-11T07:17:22.006Z,100404.09
2022-08-11T07:20:24.237Z,100396.06
2022-08-11T07:23:13.593Z,100401.06
2022-08-11T07:26:01.002Z,100406.16
2022-08-11T07:28:48.848Z,100398.94
2022-08-11T07:31:23.388Z,100396.91
2022-08-11T07:34:06.438Z,100394.19
2022-08-11T07:36:42.684Z,100387.78
2022-08-11T07:39:19.661Z,100388.34
2022-08-11T07:41:48.370Z,100391.66
2022-08-11T07:44:17.400Z,100390.66
2022-08-11T07:47:04.994Z,100386.84
2022-08-11T07:49:54.119Z,100385.84
2022-08-11T07:52:32.711Z,100379.63
2022-08-11T07:55:03.489Z,100386.28
2022-08-11T07:58:14.993Z,100375.63
2022-08-11T08:00:56.642Z,100375.44
2022-08-11T08:03:54.488Z,100376.97
2022-08-11T08:06:42.635Z,100368.13
2022-08-11T08:09:28.898Z,100371.47
2022-08-11T08:12:15.148Z,100367.53
2022-08-11T08:15:01.506Z,100370.97
2022-08-11T08:18:08.413Z,100373.19
2022-08-11T08:20:38.873Z,100386.09
2022-08-11T08:23:09.342Z,100382.50
2022-08-11T08:25:40.332Z,100378.81
2022-08-11T08:28:13.979Z,100383.00
2022-08-11T08:30:51.177Z,100369.63
2022-08-11T08:33:22.373Z,100371.13
2022-08-11T08:36:11.245Z,100376.09
2022-08-11T08:38:42.838Z,100380.41
2022-08-11T08:41:13.272Z,100382.56
2022-08-11T08:43:47.605Z,100385.84
2022-08-11T08:46:20.184Z,100387.31
2022-08-11T08:48:49.378Z,100383.72
2022-08-11T08:52:01.926Z,100378.25
2022-08-11T08:54:30.006Z,100379.00
2022-08-11T08:56:58.404Z,100376.28
2022-08-11T08:59:47.993Z,100372.72
2022-08-11T09:02:17.163Z,100375.59
2022-08-11T09:04:47.901Z,100375.31
2022-08-11T09:07:18.256Z,100377.78
2022-08-11T09:09:49.928Z,100375.34
2022-08-11T09:12:38.071Z,100377.72
2022-08-11T09:15:10.289Z,100372.06
2022-08-11T09:17:42.036Z,100377.13
2022-08-11T09:20:13.564Z,100375.34
2022-08-11T09:26:09.491Z,100364.28
2022-08-11T09:28:37.759Z,100371.38
2022-08-11T09:31:07.959Z,100363.34
2022-08-11T09:33:36.182Z,100354.06
2022-08-11T09:36:25.935Z,100372.06
2022-08-11T09:39:12.305Z,100357.88
2022-08-11T09:41:55.701Z,100364.44
2022-08-11T09:44:48.874Z,100362.09
2022-08-11T09:47:24.347Z,100363.03
2022-08-11T09:49:54.692Z,100361.47
2022-08-11T09:52:24.730Z,100364.69
2022-08-11T09:54:54.425Z,100360.19
2022-08-11T09:57:41.938Z,100359.50
2022-08-11T10:00:14.072Z,100359.22
2022-08-11T10:02:44.952Z,100347.09
2022-08-11T10:05:33.133Z,100350.28
2022-08-11T10:08:01.634Z,100353.91
2022-08-11T10:10:31.069Z,100361.53
2022-08-11T10:13:04.230Z,100342.25
2022-08-11T10:15:34.781Z,100342.34
2022-08-11T10:18:24.993Z,100341.75
2022-08-11T10:20:56.544Z,100339.25
2022-08-11T10:24:01.472Z,100330.34
2022-08-11T10:26:49.780Z,100325.41
2022-08-11T10:29:44.513Z,100321.75
2022-08-11T10:32:52.263Z,100311.16
2022-08-11T10:35:28.010Z,100320.41
2022-08-11T10:38:07.827Z,100316.94
2022-08-11T10:40:39.812Z,100307.19
2022-08-11T10:43:13.203Z,100306.22
2022-08-11T10:46:02.889Z,100304.25
2022-08-11T10:48:33.063Z,100300.66
2022-08-11T10:51:14.715Z,100304.47
2022-08-11T10:54:02.672Z,100297.38
2022-08-11T10:56:49.473Z,100292.88
2022-08-11T10:59:18.045Z,100297.97
2022-08-11T11:01:47.804Z,100279.97
2022-08-11T11:04:17.755Z,100289.13
2022-08-11T11:06:56.005Z,100282.81
2022-08-11T11:09:32.334Z,100279.72
2022-08-11T11:12:22.367Z,100267.09
2022-08-11T11:15:19.127Z,100270.16
2022-08-11T11:18:01.334Z,100269.28
2022-08-11T11:20:37.624Z,100270.78
2022-08-11T11:23:16.915Z,100261.28
2022-08-11T11:26:10.169Z,100260.22
2022-08-11T11:28:58.956Z,100257.91
2022-08-11T11:31:37.131Z,100264.66
2022-08-11T11:34:21.844Z,100263.66
2022-08-11T11:36:51.424Z,100258.00
2022-08-11T11:39:21.421Z,100249.84
2022-08-11T11:41:50.476Z,100246.19
2022-08-11T11:44:18.752Z,100239.31
2022-08-11T11:46:46.784Z,100241.13
2022-08-11T11:51:53.361Z,100239.78
2022-08-11T11:54:23.673Z,100244.47
2022-08-11T11:56:53.326Z,100235.78
2022-08-11T11:59:40.171Z,100217.69
2022-08-11T12:02:12.208Z,100217.75
2022-08-11T12:04:45.080Z,100208.91
2022-08-11T12:07:30.951Z,100213.63
2022-08-11T12:09:59.926Z,100208.97
2022-08-11T12:12:45.901Z,100212.56
2022-08-11T12:15:14.193Z,100203.69
2022-08-11T12:17:42.039Z,100213.34
2022-08-11T12:20:31.708Z,100206.78
2022-08-11T12:23:17.760Z,100209.97
2022-08-11T12:26:25.729Z,100207.66
2022-08-11T12:28:52.445Z,100208.31
2022-08-11T12:31:25.818Z,100205.22
2022-08-11T12:33:53.815Z,100190.00
2022-08-11T12:36:23.573Z,100193.06
2022-08-11T12:38:52.930Z,100185.75
2022-08-11T12:41:40.495Z,100191.59
2022-08-11T12:44:29.743Z,100184.38
2022-08-11T12:47:00.634Z,100184.63
2022-08-11T12:49:49.770Z,100173.84
2022-08-11T12:52:24.604Z,100162.16
2022-08-11T12:54:59.625Z,100170.41
2022-08-11T12:57:50.589Z,100166.72
2022-08-11T13:00:37.138Z,100168.91
2022-08-11T13:03:25.711Z,100161.03
2022-08-11T13:05:56.359Z,100165.69
2022-08-11T13:08:27.765Z,100149.75
2022-08-11T13:11:15.347Z,100154.31
2022-08-11T13:13:55.353Z,100153.50
2022-08-11T13:16:28.934Z,100150.06
2022-08-11T13:18:58.391Z,100154.44
2022-08-11T13:21:27.655Z,100149.88
2022-08-11T13:24:00.588Z,100143.50
2022-08-11T13:26:46.597Z,100131.75
2022-08-11T13:29:18.454Z,100128.13
2022-08-11T13:31:47.032Z,100126.34
2022-08-11T13:34:16.604Z,100116.44
2022-08-11T13:36:44.960Z,100116.53
2022-08-11T13:39:15.066Z,100117.28
2022-08-11T13:41:45.725Z,100109.78
2022-08-11T13:44:21.596Z,100110.56
2022-08-11T13:46:53.420Z,100114.75
2022-08-11T13:49:22.696Z,100111.38
2022-08-11T13:51:51.296Z,100100.44
2022-08-11T13:54:22.894Z,100102.91
2022-08-11T13:56:54.412Z,100092.84
2022-08-11T13:59:29.596Z,100103.28
2022-08-11T14:02:21.812Z,100099.47
2022-08-11T14:04:55.017Z,100102.19
2022-08-11T14:07:25.321Z,100098.56
2022-08-11T14:09:59.229Z,100090.50
2022-08-11T14:12:48.231Z,100070.41
2022-08-11T14:15:20.725Z,100067.72
2022-08-11T14:17:52.900Z,100079.66
2022-08-11T14:20:38.739Z,100070.66
2022-08-11T14:23:10.942Z,100062.44
2022-08-11T14:26:02.836Z,100067.53
2022-08-11T14:28:37.867Z,100069.91
2022-08-11T14:31:09.250Z,100066.88
2022-08-11T14:33:59.528Z,100061.00
2022-08-11T14:36:29.654Z,100057.56
2022-08-11T14:38:57.674Z,100047.50
2022-08-11T14:42:10.066Z,100042.78
2022-08-11T14:44:53.215Z,100049.34
2022-08-11T14:47:23.977Z,100036.59
2022-08-11T14:49:58.592Z,100053.78
2022-08-11T14:52:42.042Z,100033.00
2022-08-11T14:55:28.113Z,100027.63
2022-08-11T14:57:57.863Z,100024.66
2022-08-11T15:00:26.861Z,100017.84
2022-08-11T15:03:10.180Z,100027.38
2022-08-11T15:05:40.605Z,100025.16
2022-08-11T15:08:10.133Z,100024.97
2022-08-11T15:10:38.126Z,100030.72
2022-08-11T15:13:07.771Z,100027.06
2022-08-11T15:15:53.968Z,100025.38
2022-08-11T15:18:24.075Z,100016.22
2022-08-11T15:21:09.941Z,100009.66
2022-08-11T15:23:57.852Z,100004.81
2022-08-11T15:26:45.748Z,100014.94
2022-08-11T15:29:34.206Z,100002.16
2022-08-11T15:32:19.551Z,99992.69
2022-08-11T15:35:08.027Z,100003.19
2022-08-11T15:37:37.102Z,99998.97
2022-08-11T15:40:31.421Z,100000.38
2022-08-11T15:43:28.424Z,99989.25
2022-08-11T15:46:02.198Z,99988.91
2022-08-11T15:48:40.019Z,99989.69
2022-08-11T15:51:11.261Z,100000.41
2022-08-11T15:53:43.085Z,99986.94
2022-08-11T15:56:12.401Z,99985.00
2022-08-11T15:59:16.335Z,99981.72
2022-08-11T16:02:10.163Z,99989.13
2022-08-11T16:04:39.414Z,99983.47
2022-08-11T16:07:11.617Z,99980.75
2022-08-11T16:09:47.585Z,99981.75
2022-08-11T16:12:24.229Z,99979.19
2022-08-11T16:15:20.209Z,99975.91
2022-08-11T16:17:53.769Z,99977.28
2022-08-11T16:20:23.244Z,99979.88
2022-08-11T16:22:55.289Z,99972.44
2022-08-11T16:27:03.002Z,99982.13
2022-08-11T16:28:23.361Z,99974.19
2022-08-11T16:30:52.539Z,99969.69
2022-08-11T16:33:49.916Z,99969.84
2022-08-11T16:36:33.829Z,99972.63
2022-08-11T16:39:04.184Z,99969.91
2022-08-11T16:41:52.083Z,99964.63
2022-08-11T16:44:40.081Z,99968.59
2022-08-11T16:47:13.028Z,99960.50
2022-08-11T16:49:52.370Z,99964.06
2022-08-11T16:52:22.056Z,99969.00
2022-08-11T16:54:50.300Z,99960.88
2022-08-11T16:57:42.367Z,99960.78
2022-08-11T17:00:12.987Z,99958.25
2022-08-11T17:03:03.044Z,99957.94
2022-08-11T17:05:54.671Z,99954.53
2022-08-11T17:08:43.900Z,99960.66
2022-08-11T17:11:42.406Z,99953.84
2022-08-11T17:14:14.674Z,99954.81
2022-08-11T17:16:44.192Z,99953.41
2022-08-11T17:19:14.875Z,99947.69
2022-08-11T17:22:00.902Z,99951.66
2022-08-11T17:24:29.438Z,99952.75
2022-08-11T17:26:58.307Z,99938.09
2022-08-11T17:29:29.697Z,99943.06
2022-08-11T17:32:15.310Z,99946.00
2022-08-11T17:35:11.026Z,99948.38
2022-08-11T17:37:41.745Z,99945.47
2022-08-11T17:40:13.225Z,99952.25
2022-08-11T17:43:00.224Z,99947.25
2022-08-11T17:45:46.099Z,99946.63
2022-08-11T17:48:26.354Z,99950.88
2022-08-11T17:50:56.236Z,99939.66
2022-08-11T17:54:13.452Z,99944.84
2022-08-11T17:56:52.462Z,99940.00
2022-08-11T17:59:38.512Z,99953.16
2022-08-11T18:02:22.143Z,99957.31
2022-08-11T18:05:02.903Z,99954.69
2022-08-11T18:07:48.251Z,99955.09
2022-08-11T18:10:39.902Z,99960.25
2022-08-11T18:13:25.644Z,99956.00
2022-08-11T18:16:10.891Z,99960.69
2022-08-11T18:18:56.240Z,99965.00
2022-08-11T18:21:44.205Z,99970.03
2022-08-11T18:24:32.403Z,99966.31
2022-08-11T18:27:22.069Z,99967.22
2022-08-11T18:30:10.170Z,99969.00
2022-08-11T18:33:25.114Z,99976.41
2022-08-11T18:36:08.997Z,99969.81
2022-08-11T18:38:56.462Z,99975.44
2022-08-11T18:41:43.674Z,99984.88
2022-08-11T18:44:34.269Z,99991.84
2022-08-11T18:47:21.161Z,99991.72
2022-08-11T18:50:13.872Z,99986.63
2022-08-11T18:53:06.915Z,99990.84
2022-08-11T18:55:53.293Z,99990.84
2022-08-11T18:58:45.711Z,99998.00
2022-08-11T19:01:34.300Z,99987.38
2022-08-11T19:04:21.471Z,100003.63
2022-08-11T19:07:10.828Z,100000.72
2022-08-11T19:10:00.793Z,100005.50
2022-08-11T19:12:53.233Z,100009.06
2022-08-11T19:15:39.265Z,100017.28
2022-08-11T19:18:29.483Z,100018.34
2022-08-11T19:21:16.294Z,100019.25
2022-08-11T19:24:03.634Z,100023.38
2022-08-11T19:26:50.965Z,100017.19
2022-08-11T19:30:07.666Z,100023.09
2022-08-11T19:32:46.873Z,100013.34
2022-08-11T19:35:34.522Z,100022.91
2022-08-11T19:38:21.387Z,100028.31
2022-08-11T19:41:06.791Z,100027.22
2022-08-11T19:43:53.098Z,100029.34
2022-08-11T19:46:41.100Z,100029.22
2022-08-11T19:49:29.312Z,100032.22
2022-08-11T19:52:16.937Z,100032.88
2022-08-11T19:55:03.153Z,100031.44
2022-08-11T19:57:49.910Z,100037.84
2022-08-11T20:00:38.254Z,100036.22
2022-08-11T20:03:25.899Z,100040.81
2022-08-11T20:06:13.618Z,100037.59
2022-08-11T20:09:02.997Z,100029.94
2022-08-11T20:11:50.944Z,100033.78
2022-08-11T20:14:38.378Z,100037.56
2022-08-11T20:17:26.279Z,100040.50
2022-08-11T20:20:12.233Z,100044.41
2022-08-11T20:22:58.841Z,100045.56
2022-08-11T20:25:46.545Z,100042.28
2022-08-11T20:28:35.562Z,100037.50
2022-08-11T20:31:23.039Z,100049.06
2022-08-11T20:34:09.031Z,100045.84
2022-08-11T20:36:56.791Z,100052.16
2022-08-11T20:39:44.194Z,100062.94
2022-08-11T20:42:31.493Z,100059.91
2022-08-11T20:45:23.509Z,100065.25
2022-08-11T20:48:14.815Z,100068.03
2022-08-11T20:51:06.057Z,100063.97
2022-08-11T20:53:53.702Z,100062.31
2022-08-11T20:56:42.712Z,100067.81
2022-08-11T20:59:33.326Z,100068.06
2022-08-11T21:02:36.061Z,100064.97
2022-08-11T21:06:04.681Z,100066.34
2022-08-11T21:08:27.849Z,100068.28
2022-08-11T21:11:14.112Z,100073.72
2022-08-11T21:14:13.977Z,100071.19
2022-08-11T21:17:26.895Z,100068.75
2022-08-11T21:20:18.365Z,100078.53
2022-08-11T21:23:10.305Z,100079.63
2022-08-11T21:26:07.812Z,100082.44
2022-08-11T21:28:56.718Z,100087.94
2022-08-11T21:31:44.127Z,100083.69
2022-08-11T21:34:34.888Z,100082.03
2022-08-11T21:37:21.216Z,100076.13
2022-08-11T21:40:09.410Z,100076.19
2022-08-11T21:42:59.410Z,100069.34
2022-08-11T21:45:45.632Z,100086.78
2022-08-11T21:48:31.569Z,100077.28
2022-08-11T21:51:18.279Z,100077.38
2022-08-11T21:54:05.045Z,100076.75
2022-08-11T21:56:52.042Z,100082.94
2022-08-11T21:59:42.016Z,100079.47
2022-08-11T22:02:28.340Z,100077.06
2022-08-11T22:05:14.200Z,100084.16
2022-08-11T22:08:01.572Z,100079.84
2022-08-11T22:10:46.820Z,100079.09
2022-08-11T22:13:32.657Z,100091.25
2022-08-11T22:16:19.090Z,100080.81
2022-08-11T22:19:05.470Z,100078.19
2022-08-11T22:22:01.604Z,100074.03
2022-08-11T22:24:51.649Z,100069.75
2022-08-11T22:27:36.872Z,100072.34
2022-08-11T22:30:23.843Z,100068.91
2022-08-11T22:33:09.597Z,100071.50
2022-08-11T22:35:56.848Z,100064.63
2022-08-11T22:38:44.389Z,100068.16
2022-08-11T22:41:31.896Z,100063.00
2022-08-11T22:44:18.258Z,100070.91
2022-08-11T22:47:04.111Z,100069.25
2022-08-11T22:49:57.754Z,100066.00
2022-08-11T22:52:44.271Z,100062.50
2022-08-11T22:55:29.747Z,100063.41
2022-08-11T22:58:17.004Z,100068.63
2022-08-11T23:01:02.428Z,100061.72
2022-08-11T23:03:50.123Z,100067.78
2022-08-11T23:06:37.218Z,100073.00
2022-08-11T23:09:23.109Z,100076.47
2022-08-11T23:12:10.210Z,100074.72
2022-08-11T23:14:59.136Z,100074.75
2022-08-11T23:17:44.951Z,100073.19
2022-08-11T23:20:32.870Z,100073.31
2022-08-11T23:23:25.705Z,100068.13
2022-08-11T23:26:14.116Z,100072.50
2022-08-11T23:29:05.020Z,100075.22
2022-08-11T23:31:54.704Z,100079.59
2022-08-11T23:35:37.268Z,100070.00
2022-08-11T23:37:50.981Z,100082.25
2022-08-11T23:40:36.037Z,100082.31
2022-08-11T23:43:21.791Z,100084.06
2022-08-11T23:46:07.127Z,100080.66
2022-08-11T23:48:55.240Z,100083.28
2022-08-11T23:51:41.645Z,100085.94
2022-08-11T23:54:27.790Z,100077.19
2022-08-11T23:57:12.985Z,100083.13
2022-08-11T23:59:58.346Z,100090.19
